createdAt,value
2022-08-27T00:05:45.903Z,34.47
2022-08-27T00:15:47.696Z,37.95
2022-08-27T00:25:49.045Z,37.28
2022-08-27T00:35:50.792Z,37.65
2022-08-27T00:45:52.339Z,37.72
2022-08-27T00:55:53.737Z,39.00
2022-08-27T01:05:55.124Z,42.13
2022-08-27T01:15:59.150Z,36.78
2022-08-27T01:26:00.563Z,36.10
2022-08-27T01:36:01.923Z,36.33
2022-08-27T01:46:03.251Z,38.60
2022-08-27T01:56:04.925Z,38.88
2022-08-27T02:06:06.340Z,38.72
2022-08-27T02:16:07.711Z,39.40
2022-08-27T02:26:08.998Z,41.60
2022-08-27T02:36:10.312Z,38.85
2022-08-27T02:46:12.177Z,35.88
2022-08-27T02:56:13.580Z,33.05
2022-08-27T03:06:18.619Z,33.10
2022-08-27T03:16:20.048Z,32.13
2022-08-27T03:26:21.522Z,32.85
2022-08-27T03:36:22.835Z,31.52
2022-08-27T03:46:28.005Z,32.00
2022-08-27T03:56:29.392Z,32.72
2022-08-27T04:06:30.754Z,33.20
2022-08-27T04:16:32.128Z,30.80
2022-08-27T04:26:33.595Z,29.63
2022-08-27T04:36:35.030Z,31.30
2022-08-27T04:46:36.533Z,28.90
2022-08-27T04:56:38.073Z,29.75
2022-08-27T05:06:39.510Z,28.45
2022-08-27T05:16:41.071Z,28.75
2022-08-27T05:26:42.503Z,28.55
2022-08-27T05:36:48.578Z,29.00
2022-08-27T05:46:50.376Z,27.77
2022-08-27T05:56:51.725Z,26.65
2022-08-27T06:06:53.056Z,26.98
2022-08-27T06:16:54.394Z,25.15
2022-08-27T06:26:56.359Z,24.35
2022-08-27T06:36:57.703Z,24.65
2022-08-27T06:46:59.048Z,22.90
2022-08-27T06:57:00.683Z,24.23
2022-08-27T07:07:02.445Z,22.05
2022-08-27T07:17:03.875Z,24.20
2022-08-27T07:27:08.337Z,23.70
2022-08-27T07:37:09.625Z,24.90
2022-08-27T07:47:10.984Z,24.23
2022-08-27T07:57:12.312Z,26.98
2022-08-27T08:07:13.843Z,28.50
2022-08-27T08:17:15.318Z,34.55
2022-08-27T08:27:16.714Z,39.08
2022-08-27T08:37:18.039Z,33.58
2022-08-27T08:47:19.951Z,37.35
2022-08-27T08:57:21.340Z,39.92
2022-08-27T09:07:22.890Z,37.53
2022-08-27T09:17:24.274Z,37.63
2022-08-27T09:27:27.008Z,40.67
2022-08-27T09:37:34.186Z,36.55
2022-08-27T09:47:36.297Z,36.00
2022-08-27T09:57:37.787Z,38.40
2022-08-27T10:07:39.231Z,41.22
2022-08-27T10:17:40.806Z,36.42
2022-08-27T10:27:42.198Z,36.50
2022-08-27T10:37:43.474Z,37.45
2022-08-27T10:47:44.884Z,35.22
2022-08-27T10:57:58.737Z,36.25
2022-08-27T11:08:02.179Z,35.15
2022-08-27T11:18:04.003Z,33.75
2022-08-27T11:28:05.353Z,32.50
2022-08-27T11:38:06.853Z,32.10
2022-08-27T11:48:08.264Z,32.50
2022-08-27T11:58:09.990Z,31.95
2022-08-27T12:08:11.553Z,32.53
2022-08-27T12:18:13.031Z,32.05
2022-08-27T12:28:14.623Z,29.20
2022-08-27T12:38:16.092Z,31.92
2022-08-27T12:48:19.041Z,33.00
2022-08-27T12:58:20.408Z,31.55
2022-08-27T13:08:21.851Z,31.75
2022-08-27T13:18:23.212Z,27.17
2022-08-27T13:28:24.562Z,23.75
2022-08-27T13:38:26.104Z,23.30
2022-08-27T13:48:27.490Z,22.42
2022-08-27T13:58:28.832Z,20.52
2022-08-27T14:08:30.841Z,20.27
2022-08-27T14:18:55.433Z,21.00
2022-08-27T14:28:55.117Z,18.52
2022-08-27T14:38:56.468Z,17.45
2022-08-27T14:48:57.852Z,17.60
2022-08-27T14:58:59.146Z,18.55
2022-08-27T15:09:00.485Z,13.73
2022-08-27T15:19:02.966Z,15.27
2022-08-27T15:29:06.550Z,15.07
2022-08-27T15:49:09.518Z,15.30
2022-08-27T15:59:10.904Z,15.90
2022-08-27T16:09:12.278Z,13.77
2022-08-27T16:19:16.552Z,13.25
2022-08-27T16:29:18.252Z,12.80
2022-08-27T16:39:19.598Z,12.45
2022-08-27T16:49:39.886Z,14.73
2022-08-27T16:59:41.296Z,15.25
2022-08-27T17:09:42.584Z,13.57
2022-08-27T17:19:43.937Z,15.18
2022-08-27T17:29:45.284Z,15.07
2022-08-27T17:39:46.651Z,15.50
2022-08-27T17:49:48.006Z,18.00
2022-08-27T17:59:49.365Z,16.98
2022-08-27T18:09:50.792Z,18.33
2022-08-27T18:19:52.174Z,17.85
2022-08-27T18:29:56.354Z,19.80
2022-08-27T18:39:57.937Z,20.30
2022-08-27T18:49:59.347Z,20.58
2022-08-27T19:00:00.694Z,21.25
2022-08-27T19:10:02.316Z,19.75
2022-08-27T19:20:03.645Z,19.75
2022-08-27T19:30:04.959Z,16.75
2022-08-27T19:40:06.453Z,15.25
2022-08-27T19:50:07.803Z,14.25
2022-08-27T20:00:09.275Z,11.35
2022-08-27T20:10:10.815Z,10.63
2022-08-27T20:20:12.346Z,10.02
2022-08-27T20:30:13.728Z,10.40
2022-08-27T20:40:15.223Z,9.60
2022-08-27T20:50:16.672Z,9.82
2022-08-27T21:00:21.295Z,9.30
2022-08-27T21:10:22.689Z,9.25
2022-08-27T21:20:24.038Z,9.23
2022-08-27T21:30:26.452Z,9.27
2022-08-27T21:40:28.428Z,9.10
2022-08-27T21:50:29.845Z,8.93
2022-08-27T22:00:35.859Z,8.68
2022-08-27T22:10:37.243Z,8.73
2022-08-27T22:20:38.641Z,9.43
2022-08-27T22:30:40.042Z,8.80
2022-08-27T22:40:41.574Z,8.65
2022-08-27T22:50:44.196Z,8.40
2022-08-27T23:00:50.832Z,8.77
2022-08-27T23:10:55.367Z,8.90
2022-08-27T23:20:56.745Z,8.48
2022-08-27T23:30:58.720Z,8.52
2022-08-27T23:41:00.157Z,8.43
2022-08-27T23:51:01.750Z,8.35
